sensor_id;sensor_type;location;lat;lon;timestamp;temperature;humidity
8947;DHT22;4508;48.790;9.028;2023-02-01T00:32:12;2.90;99.90
8947;DHT22;4508;48.790;9.028;2023-02-01T00:39:35;2.80;99.90
8947;DHT22;4508;48.790;9.028;2023-02-01T00:42:02;3.10;99.90
8947;DHT22;4508;48.790;9.028;2023-02-01T00:44:29;3.20;99.90
8947;DHT22;4508;48.790;9.028;2023-02-01T00:47:00;2.70;99.90
8947;DHT22;4508;48.790;9.028;2023-02-01T00:49:27;3.00;99.90
8947;DHT22;4508;48.790;9.028;2023-02-01T00:56:49;3.10;99.90
8947;DHT22;4508;48.790;9.028;2023-02-01T01:01:44;3.10;99.90
8947;DHT22;4508;48.790;9.028;2023-02-01T01:04:12;3.30;99.90
8947;DHT22;4508;48.790;9.028;2023-02-01T01:11:36;2.90;99.90
8947;DHT22;4508;48.790;9.028;2023-02-01T01:14:05;3.40;99.90
8947;DHT22;4508;48.790;9.028;2023-02-01T01:16:32;3.30;99.90
8947;DHT22;4508;48.790;9.028;2023-02-01T01:19:00;3.30;99.90
8947;DHT22;4508;48.790;9.028;2023-02-01T01:21:28;3.00;99.90
8947;DHT22;4508;48.790;9.028;2023-02-01T01:23:55;3.00;99.90
8947;DHT22;4508;48.790;9.028;2023-02-01T01:26:24;3.10;99.90
8947;DHT22;4508;48.790;9.028;2023-02-01T01:33:48;2.80;99.90
8947;DHT22;4508;48.790;9.028;2023-02-01T01:36:15;3.20;99.90
8947;DHT22;4508;48.790;9.028;2023-02-01T01:38:43;3.10;99.90
8947;DHT22;4508;48.790;9.028;2023-02-01T01:46:17;3.10;99.90
8947;DHT22;4508;48.790;9.028;2023-02-01T01:48:44;3.20;99.90
8947;DHT22;4508;48.790;9.028;2023-02-01T02:45:30;3.00;99.90
8947;DHT22;4508;48.790;9.028;2023-02-01T03:17:38;3.10;99.90
8947;DHT22;4508;48.790;9.028;2023-02-01T03:20:06;3.30;99.90
8947;DHT22;4508;48.790;9.028;2023-02-01T03:25:10;3.20;99.90
8947;DHT22;4508;48.790;9.028;2023-02-01T03:27:41;3.10;99.90
8947;DHT22;4508;48.790;9.028;2023-02-01T03:30:13;3.10;99.90
8947;DHT22;4508;48.790;9.028;2023-02-01T03:45:29;2.90;99.90
8947;DHT22;4508;48.790;9.028;2023-02-01T03:53:01;3.10;99.90
8947;DHT22;4508;48.790;9.028;2023-02-01T03:58:02;3.20;99.90
8947;DHT22;4508;48.790;9.028;2023-02-01T04:00:30;3.10;99.90
8947;DHT22;4508;48.790;9.028;2023-02-01T04:02:57;3.20;99.90
8947;DHT22;4508;48.790;9.028;2023-02-01T04:05:24;3.20;99.90
8947;DHT22;4508;48.790;9.028;2023-02-01T04:07:51;3.20;99.90
8947;DHT22;4508;48.790;9.028;2023-02-01T04:10:19;3.50;99.90
8947;DHT22;4508;48.790;9.028;2023-02-01T04:12:45;3.40;99.90
8947;DHT22;4508;48.790;9.028;2023-02-01T04:15:12;3.30;99.90
8947;DHT22;4508;48.790;9.028;2023-02-01T04:17:39;3.40;99.90
8947;DHT22;4508;48.790;9.028;2023-02-01T04:20:06;3.40;99.90
8947;DHT22;4508;48.790;9.028;2023-02-01T04:30:00;3.50;99.90
8947;DHT22;4508;48.790;9.028;2023-02-01T04:37:22;3.30;99.90
8947;DHT22;4508;48.790;9.028;2023-02-01T05:06:56;3.20;99.90
8947;DHT22;4508;48.790;9.028;2023-02-01T05:09:22;3.50;99.90
8947;DHT22;4508;48.790;9.028;2023-02-01T05:11:49;3.70;99.90
8947;DHT22;4508;48.790;9.028;2023-02-01T05:24:28;3.50;99.90
8947;DHT22;4508;48.790;9.028;2023-02-01T07:30:28;4.30;99.90
8947;DHT22;4508;48.790;9.028;2023-02-01T07:32:55;4.40;99.90
8947;DHT22;4508;48.790;9.028;2023-02-01T07:35:26;4.40;99.90
8947;DHT22;4508;48.790;9.028;2023-02-01T07:37:52;4.40;99.90
8947;DHT22;4508;48.790;9.028;2023-02-01T07:40:19;4.40;99.90
8947;DHT22;4508;48.790;9.028;2023-02-01T07:42:50;4.50;99.90
8947;DHT22;4508;48.790;9.028;2023-02-01T07:47:45;4.40;99.90
8947;DHT22;4508;48.790;9.028;2023-02-01T08:05:19;4.40;99.90
8947;DHT22;4508;48.790;9.028;2023-02-01T09:14:56;5.00;99.90
8947;DHT22;4508;48.790;9.028;2023-02-01T09:17:24;5.10;99.90
8947;DHT22;4508;48.790;9.028;2023-02-01T09:19:51;4.90;99.90
8947;DHT22;4508;48.790;9.028;2023-02-01T09:22:18;5.00;99.90
8947;DHT22;4508;48.790;9.028;2023-02-01T09:24:45;4.90;99.90
8947;DHT22;4508;48.790;9.028;2023-02-01T09:27:11;5.10;99.90
8947;DHT22;4508;48.790;9.028;2023-02-01T09:29:38;5.20;99.90
8947;DHT22;4508;48.790;9.028;2023-02-01T09:32:06;5.10;99.90
8947;DHT22;4508;48.790;9.028;2023-02-01T09:34:33;5.30;99.90
8947;DHT22;4508;48.790;9.028;2023-02-01T09:39:28;5.10;99.90
8947;DHT22;4508;48.790;9.028;2023-02-01T09:42:02;5.30;99.90
8947;DHT22;4508;48.790;9.028;2023-02-01T09:44:42;5.10;99.90
8947;DHT22;4508;48.790;9.028;2023-02-01T09:47:14;5.10;99.90
8947;DHT22;4508;48.790;9.028;2023-02-01T09:49:48;5.20;99.90
8947;DHT22;4508;48.790;9.028;2023-02-01T09:52:17;5.30;99.90
8947;DHT22;4508;48.790;9.028;2023-02-01T09:54:51;5.30;99.90
8947;DHT22;4508;48.790;9.028;2023-02-01T09:57:24;5.40;99.90
8947;DHT22;4508;48.790;9.028;2023-02-01T10:38:08;5.50;99.90
8947;DHT22;4508;48.790;9.028;2023-02-01T11:43:54;5.80;99.90
8947;DHT22;4508;48.790;9.028;2023-02-01T12:25:25;5.70;99.90
8947;DHT22;4508;48.790;9.028;2023-02-01T12:28:16;5.80;99.90
8947;DHT22;4508;48.790;9.028;2023-02-01T12:31:04;5.90;99.90
8947;DHT22;4508;48.790;9.028;2023-02-01T12:33:45;5.70;99.90
8947;DHT22;4508;48.790;9.028;2023-02-01T12:36:21;5.80;99.90
8947;DHT22;4508;48.790;9.028;2023-02-01T12:38:57;5.80;99.90
8947;DHT22;4508;48.790;9.028;2023-02-01T12:41:37;5.70;99.90
8947;DHT22;4508;48.790;9.028;2023-02-01T12:44:11;5.60;99.90
8947;DHT22;4508;48.790;9.028;2023-02-01T12:46:43;5.60;99.90
8947;DHT22;4508;48.790;9.028;2023-02-01T12:49:14;5.50;99.90
8947;DHT22;4508;48.790;9.028;2023-02-01T13:06:49;5.20;99.90
8947;DHT22;4508;48.790;9.028;2023-02-01T13:32:01;5.30;99.90
8947;DHT22;4508;48.790;9.028;2023-02-01T13:37:35;5.20;99.90
8947;DHT22;4508;48.790;9.028;2023-02-01T13:40:18;5.30;99.90
8947;DHT22;4508;48.790;9.028;2023-02-01T13:45:20;5.10;99.90
8947;DHT22;4508;48.790;9.028;2023-02-01T13:47:50;5.20;99.90
8947;DHT22;4508;48.790;9.028;2023-02-01T13:50:22;5.30;99.90
8947;DHT22;4508;48.790;9.028;2023-02-01T13:52:55;5.20;99.90
8947;DHT22;4508;48.790;9.028;2023-02-01T13:55:29;5.10;99.90
8947;DHT22;4508;48.790;9.028;2023-02-01T13:58:03;5.20;99.90
8947;DHT22;4508;48.790;9.028;2023-02-01T14:00:32;5.20;99.90
8947;DHT22;4508;48.790;9.028;2023-02-01T14:03:12;5.20;99.90
8947;DHT22;4508;48.790;9.028;2023-02-01T14:06:03;5.30;99.90
8947;DHT22;4508;48.790;9.028;2023-02-01T14:08:42;5.20;99.90
8947;DHT22;4508;48.790;9.028;2023-02-01T14:11:41;5.20;99.90
8947;DHT22;4508;48.790;9.028;2023-02-01T14:17:37;5.30;99.90
8947;DHT22;4508;48.790;9.028;2023-02-01T14:23:37;5.10;99.90
8947;DHT22;4508;48.790;9.028;2023-02-01T14:26:16;5.20;99.90
8947;DHT22;4508;48.790;9.028;2023-02-01T16:29:51;5.00;99.90
8947;DHT22;4508;48.790;9.028;2023-02-01T16:32:21;5.00;99.90
8947;DHT22;4508;48.790;9.028;2023-02-01T16:37:20;5.00;99.90
8947;DHT22;4508;48.790;9.028;2023-02-01T17:49:32;5.10;99.90
8947;DHT22;4508;48.790;9.028;2023-02-01T17:52:01;5.00;99.90
8947;DHT22;4508;48.790;9.028;2023-02-01T17:54:27;5.20;99.90
8947;DHT22;4508;48.790;9.028;2023-02-01T17:56:54;5.10;99.90
8947;DHT22;4508;48.790;9.028;2023-02-01T17:59:25;5.00;99.90
8947;DHT22;4508;48.790;9.028;2023-02-01T18:29:08;5.00;99.90
8947;DHT22;4508;48.790;9.028;2023-02-01T18:39:09;5.00;99.90
8947;DHT22;4508;48.790;9.028;2023-02-01T18:44:04;5.00;99.90
8947;DHT22;4508;48.790;9.028;2023-02-01T18:46:31;5.00;99.90
8947;DHT22;4508;48.790;9.028;2023-02-01T18:48:58;5.00;99.90
8947;DHT22;4508;48.790;9.028;2023-02-01T18:53:53;5.10;99.90
8947;DHT22;4508;48.790;9.028;2023-02-01T18:56:20;5.10;99.90
8947;DHT22;4508;48.790;9.028;2023-02-01T18:58:46;5.10;99.90
8947;DHT22;4508;48.790;9.028;2023-02-01T19:01:15;5.00;99.90
8947;DHT22;4508;48.790;9.028;2023-02-01T19:08:38;5.10;99.90
8947;DHT22;4508;48.790;9.028;2023-02-01T19:21:02;4.90;99.90
8947;DHT22;4508;48.790;9.028;2023-02-01T19:23:29;5.00;99.90
8947;DHT22;4508;48.790;9.028;2023-02-01T20:10:41;4.80;99.90
8947;DHT22;4508;48.790;9.028;2023-02-01T20:13:09;4.90;99.90
8947;DHT22;4508;48.790;9.028;2023-02-01T20:15:35;5.00;99.90
8947;DHT22;4508;48.790;9.028;2023-02-01T20:18:04;5.00;99.90
8947;DHT22;4508;48.790;9.028;2023-02-01T20:25:28;4.80;99.90
8947;DHT22;4508;48.790;9.028;2023-02-01T20:35:23;5.00;99.90
8947;DHT22;4508;48.790;9.028;2023-02-01T20:37:50;5.10;99.90
8947;DHT22;4508;48.790;9.028;2023-02-01T20:40:17;5.10;99.90
8947;DHT22;4508;48.790;9.028;2023-02-01T20:42:44;5.10;99.90
8947;DHT22;4508;48.790;9.028;2023-02-01T20:45:11;5.20;99.90
8947;DHT22;4508;48.790;9.028;2023-02-01T21:02:28;5.00;99.90
8947;DHT22;4508;48.790;9.028;2023-02-01T21:04:55;5.30;99.90
8947;DHT22;4508;48.790;9.028;2023-02-01T21:07:22;5.20;99.90
8947;DHT22;4508;48.790;9.028;2023-02-01T22:14:11;5.50;99.90
8947;DHT22;4508;48.790;9.028;2023-02-01T22:16:38;5.40;99.90
8947;DHT22;4508;48.790;9.028;2023-02-01T22:19:07;5.30;99.90
8947;DHT22;4508;48.790;9.028;2023-02-01T22:21:34;5.20;99.90
8947;DHT22;4508;48.790;9.028;2023-02-01T22:24:01;5.20;99.90
8947;DHT22;4508;48.790;9.028;2023-02-01T22:26:28;5.10;99.90
8947;DHT22;4508;48.790;9.028;2023-02-01T22:28:55;5.20;99.90
8947;DHT22;4508;48.790;9.028;2023-02-01T22:31:22;5.10;99.90
8947;DHT22;4508;48.790;9.028;2023-02-01T22:33:49;5.10;99.90
8947;DHT22;4508;48.790;9.028;2023-02-01T22:36:17;5.10;99.90
8947;DHT22;4508;48.790;9.028;2023-02-01T22:38:45;5.00;99.90
8947;DHT22;4508;48.790;9.028;2023-02-01T22:41:13;5.10;99.90
8947;DHT22;4508;48.790;9.028;2023-02-01T22:43:39;4.90;99.90
8947;DHT22;4508;48.790;9.028;2023-02-01T22:46:09;4.80;99.90
8947;DHT22;4508;48.790;9.028;2023-02-01T22:48:38;5.00;99.90
8947;DHT22;4508;48.790;9.028;2023-02-01T22:51:06;5.10;99.90
8947;DHT22;4508;48.790;9.028;2023-02-01T22:53:35;5.10;99.90
8947;DHT22;4508;48.790;9.028;2023-02-01T22:56:04;5.00;99.90
8947;DHT22;4508;48.790;9.028;2023-02-01T22:58:31;5.10;99.90
8947;DHT22;4508;48.790;9.028;2023-02-01T23:03:34;5.00;99.90
8947;DHT22;4508;48.790;9.028;2023-02-01T23:06:02;4.90;99.90
8947;DHT22;4508;48.790;9.028;2023-02-01T23:08:31;5.00;99.90
8947;DHT22;4508;48.790;9.028;2023-02-01T23:11:02;5.30;99.90
8947;DHT22;4508;48.790;9.028;2023-02-01T23:13:30;4.90;99.90
8947;DHT22;4508;48.790;9.028;2023-02-01T23:15:56;5.00;99.90
8947;DHT22;4508;48.790;9.028;2023-02-01T23:18:23;5.00;99.90
8947;DHT22;4508;48.790;9.028;2023-02-01T23:20:50;5.10;99.90
8947;DHT22;4508;48.790;9.028;2023-02-01T23:23:17;5.00;99.90
8947;DHT22;4508;48.790;9.028;2023-02-01T23:25:48;4.90;99.90
8947;DHT22;4508;48.790;9.028;2023-02-01T23:28:16;5.10;99.90
8947;DHT22;4508;48.790;9.028;2023-02-01T23:30:43;5.00;99.90
8947;DHT22;4508;48.790;9.028;2023-02-01T23:33:10;5.10;99.90
8947;DHT22;4508;48.790;9.028;2023-02-01T23:35:36;5.00;99.90
8947;DHT22;4508;48.790;9.028;2023-02-01T23:38:03;5.10;99.90
8947;DHT22;4508;48.790;9.028;2023-02-01T23:40:30;5.10;99.90
8947;DHT22;4508;48.790;9.028;2023-02-01T23:42:57;5.20;99.90
8947;DHT22;4508;48.790;9.028;2023-02-01T23:45:39;5.00;99.90
8947;DHT22;4508;48.790;9.028;2023-02-01T23:48:05;5.00;99.90
8947;DHT22;4508;48.790;9.028;2023-02-01T23:50:32;5.10;99.90
8947;DHT22;4508;48.790;9.028;2023-02-01T23:52:59;5.10;99.90
8947;DHT22;4508;48.790;9.028;2023-02-01T23:55:25;5.10;99.90
8947;DHT22;4508;48.790;9.028;2023-02-01T23:57:53;5.00;99.90
